createdAt,value
2018-07-04T00:01:30.204Z,14.20
2018-07-04T00:07:24.234Z,13.80
2018-07-04T00:10:15.094Z,13.60
2018-07-04T00:13:01.587Z,13.70
2018-07-04T00:15:47.898Z,14.00
2018-07-04T00:18:34.127Z,14.00
2018-07-04T00:21:21.670Z,14.00
2018-07-04T00:24:08.120Z,13.90
2018-07-04T00:26:54.381Z,14.00
2018-07-04T00:29:40.772Z,13.90
2018-07-04T00:32:29.334Z,13.80
2018-07-04T00:35:15.744Z,13.80
2018-07-04T00:38:02.102Z,13.70
2018-07-04T00:40:48.550Z,13.70
2018-07-04T00:43:34.848Z,13.70
2018-07-04T00:46:21.256Z,13.80
2018-07-04T00:49:07.493Z,13.70
2018-07-04T00:51:53.960Z,13.70
2018-07-04T00:54:40.404Z,13.40
2018-07-04T00:57:26.930Z,13.30
2018-07-04T01:00:15.353Z,13.10
2018-07-04T01:03:01.715Z,13.10
2018-07-04T01:05:48.115Z,13.20
2018-07-04T01:08:34.439Z,13.10
2018-07-04T01:11:20.758Z,13.10
2018-07-04T01:14:07.073Z,12.90
2018-07-04T01:16:53.506Z,13.00
2018-07-04T01:19:39.737Z,13.00
2018-07-04T01:22:26.030Z,13.20
2018-07-04T01:25:12.476Z,13.10
2018-07-04T01:27:58.841Z,13.00
2018-07-04T01:30:45.262Z,13.00
2018-07-04T01:33:31.575Z,13.10
2018-07-04T01:38:58.530Z,12.60
2018-07-04T01:41:44.948Z,12.60
2018-07-04T01:44:31.266Z,12.70
2018-07-04T01:47:17.654Z,12.80
2018-07-04T01:50:04.213Z,12.80
2018-07-04T01:52:50.740Z,12.80
2018-07-04T01:55:37.245Z,12.90
2018-07-04T01:58:23.720Z,12.90
2018-07-04T02:01:10.147Z,12.80
2018-07-04T02:03:56.580Z,12.80
2018-07-04T02:06:42.946Z,12.70
2018-07-04T02:09:29.328Z,12.80
2018-07-04T02:12:15.764Z,12.50
2018-07-04T02:15:02.014Z,12.20
2018-07-04T02:17:48.517Z,12.30
2018-07-04T02:20:35.029Z,12.60
2018-07-04T02:23:21.352Z,12.60
2018-07-04T02:26:07.678Z,12.60
2018-07-04T02:28:54.013Z,12.80
2018-07-04T02:31:41.409Z,12.70
2018-07-04T02:34:27.602Z,12.80
2018-07-04T02:37:13.945Z,12.60
2018-07-04T02:40:00.137Z,12.80
2018-07-04T02:42:51.211Z,12.70
2018-07-04T02:45:37.895Z,12.70
2018-07-04T02:48:24.110Z,12.80
2018-07-04T02:51:10.452Z,12.70
2018-07-04T02:53:56.740Z,12.60
2018-07-04T02:56:43.116Z,12.60
2018-07-04T02:59:29.540Z,12.60
2018-07-04T03:02:16.846Z,12.80
2018-07-04T03:05:03.052Z,12.40
2018-07-04T03:07:49.360Z,12.30
2018-07-04T03:10:35.617Z,12.30
2018-07-04T03:13:22.018Z,12.30
2018-07-04T03:16:08.563Z,12.20
2018-07-04T03:18:54.847Z,12.30
2018-07-04T03:21:41.173Z,12.30
2018-07-04T03:24:27.568Z,12.10
2018-07-04T03:27:13.827Z,12.00
2018-07-04T03:30:00.116Z,12.30
2018-07-04T03:38:07.306Z,12.70
2018-07-04T03:40:53.782Z,12.80
2018-07-04T03:43:40.152Z,12.70
2018-07-04T03:46:26.457Z,12.70
2018-07-04T03:49:13.007Z,12.60
2018-07-04T03:51:59.448Z,12.50
2018-07-04T03:54:45.830Z,12.50
2018-07-04T03:57:32.154Z,12.40
2018-07-04T04:00:18.455Z,12.60
2018-07-04T04:03:04.903Z,12.60
2018-07-04T04:05:51.136Z,12.60
2018-07-04T04:08:37.656Z,12.60
2018-07-04T04:11:24.103Z,12.70
2018-07-04T04:14:10.498Z,12.90
2018-07-04T04:16:56.849Z,13.00
2018-07-04T04:19:43.118Z,12.90
2018-07-04T04:22:29.592Z,12.90
2018-07-04T04:25:16.082Z,12.80
2018-07-04T04:28:02.393Z,12.50
2018-07-04T04:30:50.048Z,12.70
2018-07-04T04:33:36.357Z,12.90
2018-07-04T04:36:23.234Z,13.10
2018-07-04T04:39:09.767Z,13.20
2018-07-04T04:44:36.411Z,13.40
2018-07-04T04:47:22.852Z,13.40
2018-07-04T04:50:09.241Z,13.50
2018-07-04T04:52:55.705Z,13.70
2018-07-04T04:55:43.141Z,13.70
2018-07-04T04:58:29.535Z,13.60
2018-07-04T05:01:15.836Z,13.70
2018-07-04T05:04:02.160Z,13.90
2018-07-04T05:09:28.894Z,14.30
2018-07-04T05:12:15.216Z,14.30
2018-07-04T05:15:01.496Z,14.40
2018-07-04T05:17:47.843Z,14.50
2018-07-04T05:20:34.083Z,14.70
2018-07-04T05:23:20.345Z,14.80
2018-07-04T05:26:06.809Z,14.90
2018-07-04T05:28:55.509Z,15.10
2018-07-04T05:31:41.859Z,15.10
2018-07-04T05:34:28.144Z,15.00
2018-07-04T05:37:15.568Z,15.00
2018-07-04T05:40:01.901Z,15.20
2018-07-04T05:42:48.724Z,15.40
2018-07-04T05:45:34.961Z,15.60
2018-07-04T05:48:21.312Z,15.70
2018-07-04T05:53:48.233Z,16.00
2018-07-04T05:56:34.473Z,16.10
2018-07-04T05:59:20.848Z,16.20
2018-07-04T06:02:07.404Z,16.50
2018-07-04T06:04:53.874Z,16.80
2018-07-04T06:07:40.213Z,16.90
2018-07-04T06:10:26.511Z,17.00
2018-07-04T06:13:17.977Z,17.10
2018-07-04T06:16:04.294Z,17.20
2018-07-04T06:18:50.692Z,17.30
2018-07-04T06:21:37.096Z,17.50
2018-07-04T06:24:23.400Z,17.70
2018-07-04T06:27:09.773Z,18.00
2018-07-04T06:29:56.308Z,18.20
2018-07-04T06:32:42.742Z,18.30
2018-07-04T06:35:28.981Z,18.20
2018-07-04T06:38:02.924Z,18.50
2018-07-04T06:40:30.808Z,18.90
2018-07-04T06:42:58.653Z,19.00
2018-07-04T06:45:26.536Z,19.20
2018-07-04T06:47:54.390Z,19.20
2018-07-04T06:50:22.278Z,19.30
2018-07-04T06:52:50.238Z,19.40
2018-07-04T06:55:18.121Z,19.60
2018-07-04T06:57:45.992Z,19.80
2018-07-04T07:00:13.890Z,19.90
2018-07-04T07:02:43.748Z,20.40
2018-07-04T07:05:23.994Z,20.50
2018-07-04T07:08:10.372Z,20.90
2018-07-04T07:10:56.701Z,21.20
2018-07-04T07:13:44.073Z,21.30
2018-07-04T07:16:30.521Z,21.50
2018-07-04T07:19:16.939Z,21.60
2018-07-04T07:22:03.325Z,21.70
2018-07-04T07:24:49.672Z,21.60
2018-07-04T07:27:36.999Z,21.90
2018-07-04T07:30:24.421Z,21.80
2018-07-04T07:33:14.019Z,22.00
2018-07-04T07:36:00.240Z,22.50
2018-07-04T07:38:46.547Z,22.90
2018-07-04T07:41:32.885Z,22.70
2018-07-04T07:44:20.160Z,22.50
2018-07-04T07:47:06.392Z,22.60
2018-07-04T07:49:53.273Z,22.90
2018-07-04T07:52:39.666Z,23.40
2018-07-04T07:55:26.054Z,22.90
2018-07-04T07:58:12.391Z,23.40
2018-07-04T08:00:58.601Z,23.60
2018-07-04T08:03:44.959Z,24.10
2018-07-04T08:06:31.187Z,24.60
2018-07-04T08:09:17.416Z,25.10
2018-07-04T08:12:03.764Z,25.50
2018-07-04T08:14:50.240Z,25.70
2018-07-04T08:17:36.487Z,26.10
2018-07-04T08:20:23.009Z,26.30
2018-07-04T08:23:09.556Z,26.50
2018-07-04T08:25:56.048Z,26.90
2018-07-04T08:28:42.549Z,27.10
2018-07-04T08:31:28.811Z,26.90
2018-07-04T08:34:15.204Z,26.80
2018-07-04T08:37:01.456Z,26.20
2018-07-04T08:39:47.790Z,26.70
2018-07-04T08:42:39.786Z,27.30
2018-07-04T08:45:26.116Z,27.90
2018-07-04T08:48:12.365Z,28.20
2018-07-04T08:50:58.923Z,28.20
2018-07-04T08:53:45.452Z,28.10
2018-07-04T08:56:31.787Z,28.60
2018-07-04T08:59:18.265Z,28.90
2018-07-04T09:02:04.687Z,28.80
2018-07-04T09:04:51.005Z,29.30
2018-07-04T09:07:37.364Z,28.90
2018-07-04T09:13:04.121Z,29.80
2018-07-04T09:15:51.547Z,29.60
2018-07-04T09:18:37.811Z,29.30
2018-07-04T09:21:25.152Z,29.10
2018-07-04T09:24:11.552Z,28.70
2018-07-04T09:29:40.464Z,29.60
2018-07-04T09:32:27.990Z,29.60
2018-07-04T09:35:20.052Z,30.30
2018-07-04T09:38:06.453Z,30.80
2018-07-04T09:40:52.800Z,31.30
2018-07-04T09:43:39.185Z,31.70
2018-07-04T09:46:25.522Z,32.20
2018-07-04T09:49:11.756Z,32.50
2018-07-04T09:51:58.183Z,32.30
2018-07-04T09:54:44.481Z,32.60
2018-07-04T09:57:30.717Z,32.70
2018-07-04T10:00:21.197Z,32.30
2018-07-04T10:03:07.872Z,32.10
2018-07-04T10:05:54.213Z,32.00
2018-07-04T10:08:40.394Z,32.10
2018-07-04T10:11:26.935Z,32.20
2018-07-04T10:14:13.367Z,32.20
2018-07-04T10:16:59.865Z,32.10
2018-07-04T10:19:46.248Z,32.10
2018-07-04T10:22:32.568Z,32.30
2018-07-04T10:25:21.069Z,32.50
2018-07-04T10:28:07.320Z,32.30
2018-07-04T10:30:53.620Z,32.50
2018-07-04T10:33:39.836Z,32.50
2018-07-04T10:36:26.115Z,32.70
2018-07-04T10:39:12.569Z,32.90
2018-07-04T10:41:58.906Z,33.20
2018-07-04T10:44:45.327Z,32.80
2018-07-04T10:47:32.858Z,32.70
2018-07-04T10:50:19.435Z,32.60
2018-07-04T10:53:05.897Z,33.20
2018-07-04T10:55:52.271Z,31.90
2018-07-04T11:01:18.976Z,32.90
2018-07-04T11:04:05.387Z,33.10
2018-07-04T11:06:51.661Z,33.10
2018-07-04T11:09:38.403Z,33.10
2018-07-04T11:12:26.827Z,31.40
2018-07-04T11:15:13.080Z,32.40
2018-07-04T11:17:59.611Z,32.70
2018-07-04T11:20:46.103Z,33.10
2018-07-04T11:23:32.411Z,33.50
2018-07-04T11:26:18.788Z,33.70
2018-07-04T11:31:47.500Z,33.40
2018-07-04T11:34:33.740Z,33.60
2018-07-04T11:37:21.139Z,33.60
2018-07-04T11:40:07.515Z,33.60
2018-07-04T11:42:53.740Z,33.80
2018-07-04T11:45:40.065Z,34.00
2018-07-04T11:50:42.052Z,34.20
2018-07-04T11:53:09.945Z,33.90
2018-07-04T11:55:37.794Z,34.40
2018-07-04T11:58:07.660Z,34.70
2018-07-04T12:00:35.527Z,34.30
2018-07-04T12:03:19.825Z,34.30
2018-07-04T12:06:02.100Z,33.70
2018-07-04T12:08:36.037Z,33.80
2018-07-04T12:11:03.915Z,34.20
2018-07-04T12:13:31.752Z,33.90
2018-07-04T12:15:59.668Z,33.20
2018-07-04T12:18:29.471Z,32.20
2018-07-04T12:20:57.443Z,32.60
2018-07-04T12:23:26.256Z,33.00
2018-07-04T12:28:22.193Z,32.90
2018-07-04T12:30:50.068Z,33.00
2018-07-04T12:33:17.916Z,32.80
2018-07-04T12:35:45.804Z,32.50
2018-07-04T12:38:13.643Z,33.50
2018-07-04T12:40:47.661Z,33.60
2018-07-04T12:45:43.657Z,33.80
2018-07-04T12:48:11.520Z,33.80
2018-07-04T12:50:41.338Z,32.60
2018-07-04T12:53:09.208Z,33.40
2018-07-04T12:55:49.463Z,33.70
2018-07-04T12:58:35.868Z,33.70
2018-07-04T13:01:22.263Z,33.50
2018-07-04T13:04:08.572Z,33.60
2018-07-04T13:06:55.107Z,33.70
2018-07-04T13:09:46.299Z,33.30
2018-07-04T13:12:32.663Z,32.60
2018-07-04T13:15:19.089Z,33.00
2018-07-04T13:18:05.503Z,32.60
2018-07-04T13:20:51.912Z,32.90
2018-07-04T13:23:38.497Z,33.10
2018-07-04T13:26:24.772Z,32.90
2018-07-04T13:29:11.139Z,33.00
2018-07-04T13:31:57.944Z,33.00
2018-07-04T13:34:44.650Z,33.20
2018-07-04T13:37:31.500Z,33.20
2018-07-04T13:40:18.077Z,33.50
2018-07-04T13:43:04.744Z,33.60
2018-07-04T13:45:51.573Z,33.30
2018-07-04T13:48:38.057Z,33.10
2018-07-04T13:51:24.694Z,33.20
2018-07-04T13:54:11.342Z,33.20
2018-07-04T13:56:57.986Z,33.10
2018-07-04T13:59:44.297Z,33.10
2018-07-04T14:02:30.756Z,32.90
2018-07-04T14:05:17.021Z,33.10
2018-07-04T14:08:05.537Z,33.20
2018-07-04T14:10:52.019Z,33.30
2018-07-04T14:13:38.340Z,33.40
2018-07-04T14:16:24.850Z,32.90
2018-07-04T14:19:11.290Z,33.10
2018-07-04T14:21:57.781Z,32.70
2018-07-04T14:24:44.165Z,32.80
2018-07-04T14:27:30.543Z,32.60
2018-07-04T14:30:17.064Z,32.40
2018-07-04T14:33:03.332Z,32.30
2018-07-04T14:35:49.684Z,32.30
2018-07-04T14:38:36.073Z,32.30
2018-07-04T14:44:02.806Z,31.80
2018-07-04T14:46:49.369Z,31.30
2018-07-04T14:49:35.760Z,30.30
2018-07-04T14:52:23.258Z,29.60
2018-07-04T14:55:09.724Z,29.20
2018-07-04T14:57:56.284Z,29.00
2018-07-04T15:00:48.459Z,29.00
2018-07-04T15:03:34.797Z,29.20
2018-07-04T15:06:21.268Z,29.20
2018-07-04T15:09:07.757Z,29.30
2018-07-04T15:14:37.911Z,29.20
2018-07-04T15:17:24.543Z,29.00
2018-07-04T15:22:52.465Z,28.80
2018-07-04T15:25:40.951Z,28.70
2018-07-04T15:28:27.339Z,28.60
2018-07-04T15:31:13.836Z,28.70
2018-07-04T15:34:01.414Z,28.70
2018-07-04T15:36:47.937Z,28.90
2018-07-04T15:39:35.255Z,28.70
2018-07-04T15:42:23.701Z,28.70
2018-07-04T15:45:10.069Z,28.90
2018-07-04T15:47:56.545Z,28.90
2018-07-04T15:50:42.813Z,28.90
2018-07-04T15:53:29.316Z,28.80
2018-07-04T15:56:16.718Z,28.80
2018-07-04T15:59:03.108Z,29.00
2018-07-04T16:01:49.430Z,28.70
2018-07-04T16:04:35.783Z,28.50
2018-07-04T16:07:22.206Z,28.40
2018-07-04T16:10:08.584Z,28.40
2018-07-04T16:12:58.924Z,28.10
2018-07-04T16:15:45.272Z,27.50
2018-07-04T16:18:34.028Z,27.50
2018-07-04T16:21:20.512Z,27.40
2018-07-04T16:24:07.957Z,27.50
2018-07-04T16:26:57.157Z,27.50
2018-07-04T16:29:43.665Z,27.60
2018-07-04T16:32:31.486Z,27.40
2018-07-04T16:35:17.933Z,27.00
2018-07-04T16:38:04.383Z,27.00
2018-07-04T16:40:50.908Z,27.20
2018-07-04T16:43:37.353Z,27.20
2018-07-04T16:46:28.144Z,27.30
2018-07-04T16:49:14.435Z,27.40
2018-07-04T16:52:00.803Z,27.50
2018-07-04T16:54:47.331Z,27.40
2018-07-04T16:57:34.203Z,27.50
2018-07-04T17:00:21.374Z,27.40
2018-07-04T17:03:09.088Z,27.30
2018-07-04T17:06:00.681Z,27.30
2018-07-04T17:11:28.526Z,27.20
2018-07-04T17:14:15.741Z,27.10
2018-07-04T17:17:03.151Z,27.10
2018-07-04T17:19:50.603Z,27.10
2018-07-04T17:22:37.395Z,27.10
2018-07-04T17:25:24.483Z,27.10
2018-07-04T17:28:12.079Z,27.10
2018-07-04T17:30:58.967Z,27.00
2018-07-04T17:33:46.522Z,27.10
2018-07-04T17:36:35.075Z,27.20
2018-07-04T17:39:23.296Z,27.20
2018-07-04T17:42:10.428Z,27.40
2018-07-04T17:44:57.177Z,27.30
2018-07-04T17:47:44.230Z,27.20
2018-07-04T17:50:31.185Z,27.20
2018-07-04T17:53:17.888Z,27.30
2018-07-04T17:58:45.861Z,27.20
2018-07-04T18:01:32.937Z,27.10
2018-07-04T18:07:00.629Z,27.20
2018-07-04T18:09:46.956Z,27.10
2018-07-04T18:12:33.360Z,26.90
2018-07-04T18:15:19.929Z,27.00
2018-07-04T18:18:06.527Z,27.00
2018-07-04T18:20:54.099Z,27.00
2018-07-04T18:23:40.397Z,26.80
2018-07-04T18:26:26.813Z,26.90
2018-07-04T18:29:13.303Z,26.90
2018-07-04T18:32:06.081Z,26.70
2018-07-04T18:34:52.705Z,26.60
2018-07-04T18:37:39.591Z,26.60
2018-07-04T18:40:28.180Z,26.60
2018-07-04T18:43:16.089Z,26.30
2018-07-04T18:46:05.486Z,26.40
2018-07-04T18:48:53.006Z,26.10
2018-07-04T18:51:42.199Z,25.80
2018-07-04T18:54:29.488Z,25.70
2018-07-04T18:57:16.801Z,25.70
2018-07-04T19:00:04.200Z,25.80
2018-07-04T19:02:52.214Z,25.80
2018-07-04T19:05:40.817Z,25.80
2018-07-04T19:08:27.272Z,25.50
2018-07-04T19:11:13.559Z,25.50
2018-07-04T19:13:59.958Z,25.30
2018-07-04T19:16:46.448Z,25.20
2018-07-04T19:19:32.837Z,25.10
2018-07-04T19:22:19.475Z,24.90
2018-07-04T19:25:05.883Z,24.70
2018-07-04T19:27:52.162Z,24.40
2018-07-04T19:30:38.507Z,24.40
2018-07-04T19:33:25.097Z,24.30
2018-07-04T19:36:11.973Z,24.30
2018-07-04T19:38:58.316Z,24.20
2018-07-04T19:41:44.656Z,24.10
2018-07-04T19:44:30.944Z,24.00
2018-07-04T19:47:18.295Z,23.80
2018-07-04T19:50:04.601Z,23.60
2018-07-04T19:52:50.908Z,23.10
2018-07-04T19:55:37.345Z,23.20
2018-07-04T19:58:23.606Z,23.40
2018-07-04T20:01:09.916Z,23.20
2018-07-04T20:03:56.295Z,23.10
2018-07-04T20:06:43.118Z,22.90
2018-07-04T20:09:29.989Z,23.00
2018-07-04T20:12:16.840Z,22.90
2018-07-04T20:15:03.463Z,22.60
2018-07-04T20:17:50.068Z,22.40
2018-07-04T20:20:36.540Z,22.00
2018-07-04T20:23:23.279Z,21.90
2018-07-04T20:26:10.768Z,22.20
2018-07-04T20:28:57.194Z,22.20
2018-07-04T20:31:43.848Z,22.10
2018-07-04T20:34:30.630Z,21.70
2018-07-04T20:37:17.215Z,21.30
2018-07-04T20:40:03.780Z,21.30
2018-07-04T20:42:50.285Z,21.20
2018-07-04T20:45:36.963Z,21.30
2018-07-04T20:48:23.628Z,21.20
2018-07-04T20:51:11.130Z,21.20
2018-07-04T20:53:57.797Z,21.00
2018-07-04T20:56:45.371Z,20.90
2018-07-04T20:59:31.663Z,20.70
2018-07-04T21:02:18.072Z,20.70
2018-07-04T21:05:06.552Z,20.60
2018-07-04T21:07:53.952Z,20.70
2018-07-04T21:10:40.248Z,20.70
2018-07-04T21:13:26.632Z,20.80
2018-07-04T21:16:16.328Z,20.80
2018-07-04T21:19:02.925Z,20.80
2018-07-04T21:21:49.527Z,20.60
2018-07-04T21:24:41.700Z,20.30
2018-07-04T21:27:28.384Z,20.40
2018-07-04T21:30:14.836Z,20.30
2018-07-04T21:33:01.664Z,19.90
2018-07-04T21:35:48.188Z,20.00
2018-07-04T21:38:36.770Z,19.90
2018-07-04T21:41:23.288Z,19.70
2018-07-04T21:44:09.909Z,19.80
2018-07-04T21:46:56.379Z,19.80
2018-07-04T21:49:42.756Z,19.60
2018-07-04T21:52:29.410Z,19.60
2018-07-04T21:55:15.900Z,19.60
2018-07-04T21:58:02.365Z,19.40
2018-07-04T22:00:49.728Z,19.40
2018-07-04T22:03:36.331Z,19.20
2018-07-04T22:06:22.586Z,19.10
2018-07-04T22:09:09.131Z,19.30
2018-07-04T22:11:55.825Z,19.10
2018-07-04T22:14:42.285Z,18.90
2018-07-04T22:17:28.629Z,18.90
2018-07-04T22:20:15.014Z,18.80
2018-07-04T22:23:01.488Z,18.40
2018-07-04T22:28:28.404Z,18.30
2018-07-04T22:31:14.853Z,18.40
2018-07-04T22:34:01.275Z,18.30
2018-07-04T22:36:47.591Z,18.40
2018-07-04T22:39:33.997Z,18.40
2018-07-04T22:42:20.290Z,18.30
2018-07-04T22:45:06.785Z,18.00
2018-07-04T22:47:53.100Z,18.00
2018-07-04T22:50:39.562Z,17.90
2018-07-04T22:53:25.983Z,17.90
2018-07-04T22:56:12.332Z,18.00
2018-07-04T22:58:58.891Z,18.10
2018-07-04T23:01:45.360Z,18.10
2018-07-04T23:04:31.739Z,17.80
2018-07-04T23:07:18.317Z,17.80
2018-07-04T23:10:04.532Z,17.80
2018-07-04T23:12:50.799Z,17.70
2018-07-04T23:15:37.168Z,17.60
2018-07-04T23:18:23.736Z,17.60
2018-07-04T23:21:10.395Z,17.40
2018-07-04T23:24:01.191Z,17.60
2018-07-04T23:26:47.619Z,17.40
2018-07-04T23:29:34.000Z,17.20
2018-07-04T23:32:21.363Z,17.40
2018-07-04T23:35:07.832Z,17.20
2018-07-04T23:37:54.129Z,17.00
2018-07-04T23:40:40.515Z,17.20
2018-07-04T23:43:26.993Z,17.10
2018-07-04T23:46:13.564Z,17.10
2018-07-04T23:48:59.948Z,17.10
2018-07-04T23:51:46.327Z,16.90
2018-07-04T23:54:32.787Z,17.00
2018-07-04T23:57:19.065Z,17.00
